Time;durP1;ratioP1;P1;durP2;ratioP2;P2;SDS_P1;SDS_P2;PMS_P1;PMS_P2;Temp;Humidity;BMP_temperature;BMP_pressure;BME280_temperature;BME280_humidity;BME280_pressure;Samples;Min_cycle;Max_cycle;Signal;HPM_P1;HPM_P2
2022/09/07 00:00:31;;;;;;;4.07;2.70;;;;;;;;;;5064224;28;20193;-69
2022/09/07 00:02:57;;;;;;;4.63;2.65;;;;;;;;;;5063682;28;20201;-69
2022/09/07 00:05:24;;;;;;;4.30;2.88;;;;;;;;;;5064086;28;20221;-69
2022/09/07 00:07:50;;;;;;;9.35;2.70;;;;;;;;;;5063020;28;20204;-69
2022/09/07 00:10:16;;;;;;;4.38;2.17;;;;;;;;;;5063253;28;20551;-69
2022/09/07 00:12:43;;;;;;;6.50;2.90;;;;;;;;;;5063701;28;20205;-69
2022/09/07 00:15:11;;;;;;;3.13;2.83;;;;;;;;;;5063781;28;20493;-69
2022/09/07 00:17:39;;;;;;;5.95;2.75;;;;;;;;;;5063483;28;20212;-69
2022/09/07 00:20:07;;;;;;;5.43;2.50;;;;;;;;;;5063925;28;20193;-69
2022/09/07 00:22:33;;;;;;;4.28;2.70;;;;;;;;;;5063591;28;20201;-69
2022/09/07 00:24:59;;;;;;;3.42;2.72;;;;;;;;;;5063518;28;20197;-69
2022/09/07 00:27:26;;;;;;;4.05;2.38;;;;;;;;;;5063470;28;20203;-69
2022/09/07 00:29:52;;;;;;;5.53;3.05;;;;;;;;;;5063397;28;20204;-69
2022/09/07 00:32:18;;;;;;;5.30;2.97;;;;;;;;;;5063030;28;20204;-70
2022/09/07 00:34:46;;;;;;;7.82;2.70;;;;;;;;;;5063209;28;20200;-69
2022/09/07 00:37:12;;;;;;;3.85;2.85;;;;;;;;;;5063585;28;20197;-70
2022/09/07 00:39:38;;;;;;;3.22;2.67;;;;;;;;;;5063455;28;20226;-69
2022/09/07 00:42:05;;;;;;;3.22;2.95;;;;;;;;;;5063349;28;20197;-69
2022/09/07 00:44:56;;;;;;;3.90;2.78;;;;;;;;;;5063041;28;20388;-69
2022/09/07 00:47:23;;;;;;;5.20;2.55;;;;;;;;;;5063274;28;20197;-70
2022/09/07 00:49:52;;;;;;;2.55;2.35;;;;;;;;;;5063297;28;20204;-69
2022/09/07 00:52:20;;;;;;;3.25;2.80;;;;;;;;;;5062840;28;20204;-69
2022/09/07 00:54:48;;;;;;;4.07;2.75;;;;;;;;;;5063097;28;20203;-69
2022/09/07 00:57:15;;;;;;;6.13;3.13;;;;;;;;;;5063236;28;20304;-69
2022/09/07 00:59:43;;;;;;;4.95;3.05;;;;;;;;;;5063052;28;20211;-70
2022/09/07 01:02:10;;;;;;;3.40;3.10;;;;;;;;;;5062919;28;20197;-70
2022/09/07 01:04:37;;;;;;;7.25;3.72;;;;;;;;;;5062611;28;20216;-69
2022/09/07 01:07:05;;;;;;;4.90;2.78;;;;;;;;;;5062941;28;20395;-69
2022/09/07 01:09:31;;;;;;;4.40;2.95;;;;;;;;;;5062593;28;20205;-69
2022/09/07 01:11:58;;;;;;;3.55;2.95;;;;;;;;;;5062847;28;20209;-69
2022/09/07 01:14:27;;;;;;;4.75;2.70;;;;;;;;;;5061782;28;20207;-69
2022/09/07 01:16:59;;;;;;;6.47;2.88;;;;;;;;;;5062526;28;20363;-69
2022/09/07 01:19:52;;;;;;;4.05;2.55;;;;;;;;;;5062839;28;20197;-69
2022/09/07 01:22:32;;;;;;;5.57;2.30;;;;;;;;;;5026673;28;20203;-69
2022/09/07 01:25:02;;;;;;;3.50;2.45;;;;;;;;;;5062453;28;20203;-69
2022/09/07 01:27:43;;;;;;;2.67;2.40;;;;;;;;;;5062643;28;20224;-70
2022/09/07 01:30:12;;;;;;;2.53;2.28;;;;;;;;;;5059616;28;20435;-70
2022/09/07 01:33:03;;;;;;;4.20;2.47;;;;;;;;;;5062209;28;20497;-69
2022/09/07 01:35:32;;;;;;;2.88;2.67;;;;;;;;;;5046908;28;20204;-69
2022/09/07 01:38:03;;;;;;;5.55;3.00;;;;;;;;;;5062499;28;20204;-70
2022/09/07 01:40:34;;;;;;;4.97;2.80;;;;;;;;;;5062397;28;20221;-69
2022/09/07 01:43:03;;;;;;;6.40;3.20;;;;;;;;;;5062069;28;20201;-69
2022/09/07 01:45:33;;;;;;;3.20;2.92;;;;;;;;;;5062160;28;20209;-69
2022/09/07 01:48:00;;;;;;;4.00;2.83;;;;;;;;;;5062113;28;20197;-69
2022/09/07 01:50:28;;;;;;;9.02;3.47;;;;;;;;;;5062489;28;20248;-69
2022/09/07 01:52:57;;;;;;;3.50;2.80;;;;;;;;;;5061900;28;20197;-69
2022/09/07 01:55:27;;;;;;;6.43;2.72;;;;;;;;;;5062060;28;20196;-69
2022/09/07 01:57:55;;;;;;;3.00;2.80;;;;;;;;;;5062118;28;20220;-69
2022/09/07 02:00:21;;;;;;;3.00;2.60;;;;;;;;;;5062503;28;20196;-69
2022/09/07 02:02:51;;;;;;;8.40;2.83;;;;;;;;;;5061612;28;20212;-69
2022/09/07 02:05:20;;;;;;;7.72;2.58;;;;;;;;;;5062022;28;20216;-69
2022/09/07 02:07:47;;;;;;;3.13;2.40;;;;;;;;;;5062116;28;20197;-69
2022/09/07 02:10:16;;;;;;;12.27;2.30;;;;;;;;;;5066126;28;20197;-70
2022/09/07 02:12:44;;;;;;;4.18;2.40;;;;;;;;;;5065765;28;20204;-69
2022/09/07 02:15:13;;;;;;;4.38;2.33;;;;;;;;;;5065985;28;20204;-69
2022/09/07 02:17:42;;;;;;;5.03;2.45;;;;;;;;;;5066146;28;20196;-69
2022/09/07 02:20:11;;;;;;;4.80;2.08;;;;;;;;;;5066158;28;20204;-70
2022/09/07 02:22:39;;;;;;;2.90;2.50;;;;;;;;;;5065689;28;20215;-69
2022/09/07 02:25:07;;;;;;;3.45;2.20;;;;;;;;;;5065780;28;20399;-69
2022/09/07 02:27:35;;;;;;;4.18;2.60;;;;;;;;;;5065932;28;20483;-69
2022/09/07 02:30:01;;;;;;;3.80;3.15;;;;;;;;;;5066049;28;20436;-69
2022/09/07 02:32:28;;;;;;;4.13;2.60;;;;;;;;;;5065707;28;20231;-69
2022/09/07 02:34:54;;;;;;;4.35;2.85;;;;;;;;;;5065677;28;20197;-70
2022/09/07 02:37:22;;;;;;;4.13;2.28;;;;;;;;;;5065626;28;20528;-70
2022/09/07 02:39:48;;;;;;;5.50;3.08;;;;;;;;;;5065671;28;20197;-69
2022/09/07 02:42:15;;;;;;;5.10;3.22;;;;;;;;;;5065191;28;20203;-69
2022/09/07 02:44:44;;;;;;;8.60;3.42;;;;;;;;;;5065708;28;20211;-69
2022/09/07 02:47:16;;;;;;;8.40;3.50;;;;;;;;;;5065610;28;20268;-69
2022/09/07 02:49:51;;;;;;;7.03;3.70;;;;;;;;;;5065489;28;20207;-69
2022/09/07 02:52:20;;;;;;;5.72;3.08;;;;;;;;;;5065192;28;20224;-70
2022/09/07 02:54:53;;;;;;;10.57;3.50;;;;;;;;;;5065265;28;20204;-69
2022/09/07 02:57:23;;;;;;;7.47;3.67;;;;;;;;;;5065324;28;20243;-69
2022/09/07 02:59:55;;;;;;;4.28;3.05;;;;;;;;;;5065389;28;20197;-69
2022/09/07 03:02:27;;;;;;;9.48;3.13;;;;;;;;;;5065070;28;20193;-69
2022/09/07 03:04:56;;;;;;;3.00;2.70;;;;;;;;;;5065522;28;20406;-69
2022/09/07 03:07:23;;;;;;;3.30;2.97;;;;;;;;;;5064436;28;20197;-69
2022/09/07 03:09:52;;;;;;;8.73;2.58;;;;;;;;;;5064306;28;20205;-69
2022/09/07 03:12:18;;;;;;;4.40;2.45;;;;;;;;;;5065129;28;20541;-69
2022/09/07 03:14:45;;;;;;;4.68;2.83;;;;;;;;;;5065095;28;20197;-69
2022/09/07 03:17:11;;;;;;;4.15;2.47;;;;;;;;;;5064868;28;20417;-69
2022/09/07 03:19:37;;;;;;;3.28;2.80;;;;;;;;;;5064871;28;20201;-69
2022/09/07 03:22:04;;;;;;;2.85;2.30;;;;;;;;;;5064725;28;20193;-69
2022/09/07 03:24:30;;;;;;;4.88;2.55;;;;;;;;;;5064816;28;20374;-69
2022/09/07 03:26:58;;;;;;;7.97;2.67;;;;;;;;;;5064715;28;20219;-69
2022/09/07 03:29:24;;;;;;;4.55;3.10;;;;;;;;;;5064984;28;20271;-69
2022/09/07 03:31:50;;;;;;;10.85;3.85;;;;;;;;;;5064568;28;20221;-69
2022/09/07 03:34:17;;;;;;;7.65;4.47;;;;;;;;;;5064432;28;20252;-69
2022/09/07 03:36:43;;;;;;;11.10;4.55;;;;;;;;;;5064885;28;20203;-69
2022/09/07 03:39:10;;;;;;;13.70;5.80;;;;;;;;;;5064720;28;20519;-69
2022/09/07 03:41:37;;;;;;;9.95;5.30;;;;;;;;;;5064422;28;20205;-70
2022/09/07 03:44:05;;;;;;;9.52;4.60;;;;;;;;;;5064355;28;20198;-69
2022/09/07 03:46:31;;;;;;;10.98;4.35;;;;;;;;;;5064217;28;20203;-69
2022/09/07 03:48:58;;;;;;;5.63;3.40;;;;;;;;;;5064172;28;20212;-69
2022/09/07 03:51:24;;;;;;;7.40;3.40;;;;;;;;;;5064354;28;20575;-71
2022/09/07 03:53:51;;;;;;;15.77;3.83;;;;;;;;;;5064000;28;20243;-71
2022/09/07 03:56:18;;;;;;;4.50;3.00;;;;;;;;;;5064396;28;20197;-71
2022/09/07 03:58:45;;;;;;;5.53;3.30;;;;;;;;;;5064094;28;20197;-69
2022/09/07 04:01:14;;;;;;;7.43;3.60;;;;;;;;;;5064064;28;20219;-71
2022/09/07 04:03:40;;;;;;;5.00;3.33;;;;;;;;;;5063953;28;20396;-71
2022/09/07 04:06:06;;;;;;;7.18;3.40;;;;;;;;;;5064263;28;20217;-69
2022/09/07 04:08:33;;;;;;;4.07;3.50;;;;;;;;;;5064116;28;20496;-70
2022/09/07 04:11:00;;;;;;;5.50;3.42;;;;;;;;;;5063956;28;20212;-70
2022/09/07 04:13:27;;;;;;;3.95;3.35;;;;;;;;;;5063665;28;20200;-71
2022/09/07 04:15:54;;;;;;;6.43;3.55;;;;;;;;;;5063796;28;20501;-70
2022/09/07 04:18:22;;;;;;;7.75;4.05;;;;;;;;;;5063950;28;20393;-70
2022/09/07 04:20:49;;;;;;;9.70;2.65;;;;;;;;;;5063929;28;20462;-70
2022/09/07 04:23:15;;;;;;;4.40;3.50;;;;;;;;;;5063506;28;20377;-70
2022/09/07 04:25:46;;;;;;;5.82;3.53;;;;;;;;;;5063514;28;20801;-69
2022/09/07 04:28:12;;;;;;;5.22;3.33;;;;;;;;;;5063680;28;20204;-69
2022/09/07 04:30:38;;;;;;;4.43;3.25;;;;;;;;;;5063125;28;20204;-69
2022/09/07 04:33:04;;;;;;;6.38;3.30;;;;;;;;;;5063074;28;20226;-69
2022/09/07 04:35:35;;;;;;;4.07;2.70;;;;;;;;;;5063573;28;20211;-69
2022/09/07 04:38:01;;;;;;;8.23;3.55;;;;;;;;;;5063394;28;20204;-69
2022/09/07 04:40:27;;;;;;;4.20;3.00;;;;;;;;;;5063282;28;20203;-69
2022/09/07 04:42:54;;;;;;;3.55;3.10;;;;;;;;;;5063098;28;20200;-69
2022/09/07 04:45:20;;;;;;;6.25;2.83;;;;;;;;;;5063481;28;20550;-69
2022/09/07 04:47:46;;;;;;;5.28;2.97;;;;;;;;;;5063375;28;20408;-69
2022/09/07 04:50:13;;;;;;;3.75;2.70;;;;;;;;;;5063540;28;20501;-69
2022/09/07 04:52:41;;;;;;;6.20;2.85;;;;;;;;;;5062913;28;20231;-69
2022/09/07 04:55:07;;;;;;;2.70;2.35;;;;;;;;;;5063185;28;20204;-69
2022/09/07 04:57:33;;;;;;;2.92;2.65;;;;;;;;;;5062966;28;20204;-69
2022/09/07 05:00:00;;;;;;;3.25;3.00;;;;;;;;;;5063178;28;20197;-69
2022/09/07 05:02:26;;;;;;;4.68;2.95;;;;;;;;;;5062789;28;20193;-69
2022/09/07 05:04:52;;;;;;;6.15;2.92;;;;;;;;;;5062703;28;20378;-69
2022/09/07 05:07:18;;;;;;;4.50;3.00;;;;;;;;;;5062975;28;20219;-69
2022/09/07 05:09:46;;;;;;;3.75;2.78;;;;;;;;;;5062520;28;20197;-69
2022/09/07 05:12:12;;;;;;;5.28;2.60;;;;;;;;;;5062379;28;20240;-69
2022/09/07 05:14:39;;;;;;;4.63;3.03;;;;;;;;;;5062854;28;20201;-69
2022/09/07 05:17:06;;;;;;;3.47;2.83;;;;;;;;;;5062645;28;20204;-69
2022/09/07 05:19:32;;;;;;;4.70;3.15;;;;;;;;;;5062315;28;20205;-69
2022/09/07 05:21:59;;;;;;;5.47;2.97;;;;;;;;;;5062415;28;20193;-69
2022/09/07 05:24:26;;;;;;;6.70;3.63;;;;;;;;;;5062091;28;20251;-69
2022/09/07 05:26:54;;;;;;;6.38;3.60;;;;;;;;;;5062053;28;20211;-69
2022/09/07 05:29:20;;;;;;;4.40;4.00;;;;;;;;;;5062414;28;20213;-69
2022/09/07 05:31:48;;;;;;;6.28;3.33;;;;;;;;;;5062406;28;20263;-69
2022/09/07 05:34:14;;;;;;;6.13;3.80;;;;;;;;;;5062014;28;20228;-69
2022/09/07 05:36:41;;;;;;;10.95;4.10;;;;;;;;;;5062083;28;20197;-69
2022/09/07 05:39:07;;;;;;;4.15;3.75;;;;;;;;;;5061904;28;20203;-68
2022/09/07 05:41:34;;;;;;;7.25;4.70;;;;;;;;;;5062022;28;20197;-68
2022/09/07 05:44:02;;;;;;;5.05;3.80;;;;;;;;;;5060964;28;20201;-68
2022/09/07 05:46:28;;;;;;;3.78;3.47;;;;;;;;;;5061874;28;20188;-68
2022/09/07 05:48:54;;;;;;;4.10;3.80;;;;;;;;;;5061946;28;20197;-68
2022/09/07 05:51:21;;;;;;;4.70;4.30;;;;;;;;;;5061907;28;20452;-68
2022/09/07 05:53:47;;;;;;;5.57;4.72;;;;;;;;;;5061569;28;20284;-68
2022/09/07 05:56:14;;;;;;;7.63;4.68;;;;;;;;;;5061798;28;20275;-68
2022/09/07 05:58:40;;;;;;;5.35;4.13;;;;;;;;;;5061947;28;20204;-68
2022/09/07 06:01:09;;;;;;;4.80;3.80;;;;;;;;;;5061755;28;20201;-68
2022/09/07 06:03:36;;;;;;;8.82;4.28;;;;;;;;;;5061532;28;20231;-68
2022/09/07 06:06:04;;;;;;;6.22;4.22;;;;;;;;;;5061723;28;20271;-69
2022/09/07 06:08:31;;;;;;;5.93;4.43;;;;;;;;;;5061004;28;20193;-68
2022/09/07 06:10:57;;;;;;;7.03;3.80;;;;;;;;;;5061226;28;20238;-68
2022/09/07 06:13:23;;;;;;;7.93;4.53;;;;;;;;;;5061382;28;20221;-68
2022/09/07 06:15:50;;;;;;;5.60;4.32;;;;;;;;;;5061288;28;20204;-71
2022/09/07 06:18:17;;;;;;;5.53;4.35;;;;;;;;;;5061389;28;20212;-64
2022/09/07 06:20:44;;;;;;;7.90;4.65;;;;;;;;;;5063778;28;20219;-64
2022/09/07 06:23:10;;;;;;;7.55;4.80;;;;;;;;;;5068258;28;20208;-63
2022/09/07 06:25:36;;;;;;;5.07;4.60;;;;;;;;;;5065092;28;20300;-64
2022/09/07 06:28:03;;;;;;;5.55;4.43;;;;;;;;;;5069155;28;20208;-64
2022/09/07 06:30:29;;;;;;;4.75;4.40;;;;;;;;;;5067069;28;20231;-64
2022/09/07 06:32:55;;;;;;;8.90;4.43;;;;;;;;;;5073504;28;20232;-64
2022/09/07 06:35:23;;;;;;;10.13;4.85;;;;;;;;;;5073750;28;20211;-63
2022/09/07 06:37:49;;;;;;;12.55;4.85;;;;;;;;;;5073425;28;20204;-64
2022/09/07 06:40:16;;;;;;;8.30;4.50;;;;;;;;;;5071475;28;20227;-65
2022/09/07 06:42:42;;;;;;;10.00;4.70;;;;;;;;;;5073312;28;20208;-64
2022/09/07 06:45:09;;;;;;;5.40;4.13;;;;;;;;;;5073908;28;20277;-65
2022/09/07 06:47:36;;;;;;;5.85;4.53;;;;;;;;;;5073207;28;20275;-65
2022/09/07 06:50:02;;;;;;;8.63;4.50;;;;;;;;;;5073824;28;20544;-65
2022/09/07 06:52:30;;;;;;;6.63;4.00;;;;;;;;;;5073318;28;20406;-64
2022/09/07 06:54:56;;;;;;;5.53;4.00;;;;;;;;;;5075177;28;20212;-64
2022/09/07 06:57:22;;;;;;;7.03;4.57;;;;;;;;;;5077274;28;20219;-64
2022/09/07 06:59:49;;;;;;;5.32;3.90;;;;;;;;;;5078108;28;20212;-63
2022/09/07 07:02:17;;;;;;;7.57;4.20;;;;;;;;;;5077527;28;20213;-64
2022/09/07 07:04:43;;;;;;;6.85;3.47;;;;;;;;;;5076800;28;20394;-65
2022/09/07 07:07:11;;;;;;;7.90;3.40;;;;;;;;;;5075628;28;20291;-66
2022/09/07 07:09:38;;;;;;;5.05;3.70;;;;;;;;;;5076827;28;20212;-64
2022/09/07 07:12:05;;;;;;;4.40;3.15;;;;;;;;;;5076271;28;20281;-63
2022/09/07 07:14:31;;;;;;;3.67;3.33;;;;;;;;;;5076394;28;20216;-65
2022/09/07 07:16:58;;;;;;;7.38;3.42;;;;;;;;;;5076395;28;20458;-64
2022/09/07 07:19:24;;;;;;;6.05;2.97;;;;;;;;;;5075872;28;20242;-66
2022/09/07 07:21:50;;;;;;;7.35;3.28;;;;;;;;;;5076392;28;20216;-65
2022/09/07 07:24:17;;;;;;;3.70;2.95;;;;;;;;;;5076199;28;20247;-66
2022/09/07 07:26:47;;;;;;;5.53;3.30;;;;;;;;;;5076358;28;20226;-66
2022/09/07 07:29:13;;;;;;;10.27;3.42;;;;;;;;;;5079442;28;20246;-66
2022/09/07 07:31:40;;;;;;;4.65;3.63;;;;;;;;;;5077285;28;20204;-66
2022/09/07 07:34:07;;;;;;;4.57;3.30;;;;;;;;;;5076077;28;20228;-66
2022/09/07 07:36:34;;;;;;;7.72;3.53;;;;;;;;;;5075609;28;20288;-63
2022/09/07 07:39:00;;;;;;;10.30;3.83;;;;;;;;;;5076471;28;20216;-63
2022/09/07 07:41:28;;;;;;;5.28;3.70;;;;;;;;;;5076352;28;20222;-66
2022/09/07 07:43:58;;;;;;;5.30;3.50;;;;;;;;;;5075918;28;20209;-65
2022/09/07 07:46:25;;;;;;;9.30;3.20;;;;;;;;;;5075131;28;20285;-66
2022/09/07 07:48:52;;;;;;;8.23;3.15;;;;;;;;;;5075886;28;20269;-62
2022/09/07 07:51:18;;;;;;;7.95;3.42;;;;;;;;;;5075938;28;20212;-66
2022/09/07 07:53:44;;;;;;;6.05;3.03;;;;;;;;;;5075697;28;20236;-62
2022/09/07 07:56:11;;;;;;;11.00;3.40;;;;;;;;;;5075572;28;20550;-64
2022/09/07 07:58:38;;;;;;;9.55;3.00;;;;;;;;;;5075594;28;20386;-66
2022/09/07 08:01:06;;;;;;;5.53;3.40;;;;;;;;;;5076359;28;20231;-65
2022/09/07 08:03:34;;;;;;;4.57;2.67;;;;;;;;;;5075437;28;20208;-62
2022/09/07 08:06:04;;;;;;;6.95;2.97;;;;;;;;;;5074589;28;20269;-65
2022/09/07 08:08:31;;;;;;;5.43;3.05;;;;;;;;;;5075435;28;20212;-63
2022/09/07 08:10:57;;;;;;;5.18;2.88;;;;;;;;;;5075297;28;20204;-66
2022/09/07 08:13:24;;;;;;;9.82;3.33;;;;;;;;;;5075494;28;20240;-65
2022/09/07 08:15:51;;;;;;;7.03;3.08;;;;;;;;;;5076114;28;20213;-65
2022/09/07 08:18:19;;;;;;;5.40;2.65;;;;;;;;;;5075347;28;20215;-65
2022/09/07 08:20:45;;;;;;;3.35;2.63;;;;;;;;;;5075893;28;20212;-65
2022/09/07 08:23:11;;;;;;;4.90;3.58;;;;;;;;;;5074829;28;20200;-65
2022/09/07 08:25:37;;;;;;;5.55;2.83;;;;;;;;;;5075019;28;20226;-66
2022/09/07 08:28:04;;;;;;;5.53;2.90;;;;;;;;;;5075110;28;20219;-65
2022/09/07 08:30:30;;;;;;;10.20;3.40;;;;;;;;;;5075386;28;20304;-65
2022/09/07 08:32:56;;;;;;;4.63;2.15;;;;;;;;;;5074551;28;20224;-65
2022/09/07 08:35:24;;;;;;;5.80;2.15;;;;;;;;;;5075307;28;20461;-65
2022/09/07 08:37:50;;;;;;;8.77;2.08;;;;;;;;;;5074636;28;20450;-66
2022/09/07 08:40:23;;;;;;;8.07;2.47;;;;;;;;;;5071399;28;20212;-66
2022/09/07 08:42:57;;;;;;;7.15;2.10;;;;;;;;;;5074742;28;20573;-65
2022/09/07 08:45:27;;;;;;;11.45;2.38;;;;;;;;;;5072478;28;20520;-66
2022/09/07 08:47:53;;;;;;;7.90;2.53;;;;;;;;;;5074260;28;20570;-66
2022/09/07 08:50:21;;;;;;;8.45;2.35;;;;;;;;;;5074977;28;20234;-65
2022/09/07 08:52:51;;;;;;;8.45;2.67;;;;;;;;;;5070994;28;20269;-65
2022/09/07 08:55:20;;;;;;;5.65;2.13;;;;;;;;;;5075137;28;20211;-65
2022/09/07 08:57:49;;;;;;;6.63;2.38;;;;;;;;;;5075077;28;20297;-66
2022/09/07 09:00:16;;;;;;;5.35;2.22;;;;;;;;;;5073733;28;20233;-63
2022/09/07 09:02:42;;;;;;;5.10;1.88;;;;;;;;;;5075101;28;20208;-64
2022/09/07 09:05:15;;;;;;;8.27;2.45;;;;;;;;;;5074140;28;20235;-64
2022/09/07 09:07:45;;;;;;;8.45;2.92;;;;;;;;;;5073821;28;20278;-63
2022/09/07 09:10:26;;;;;;;5.72;2.13;;;;;;;;;;5074802;28;20211;-64
2022/09/07 09:12:58;;;;;;;7.63;2.30;;;;;;;;;;5072451;28;20223;-64
2022/09/07 09:15:30;;;;;;;6.70;2.40;;;;;;;;;;5074024;28;20254;-65
2022/09/07 09:18:01;;;;;;;7.05;2.40;;;;;;;;;;5073861;28;20453;-64
2022/09/07 09:20:30;;;;;;;8.50;1.92;;;;;;;;;;5074166;28;20211;-64
2022/09/07 09:23:00;;;;;;;7.43;2.35;;;;;;;;;;5074702;28;20269;-63
2022/09/07 09:25:31;;;;;;;5.13;1.92;;;;;;;;;;5074025;28;20224;-64
2022/09/07 09:27:57;;;;;;;7.18;2.28;;;;;;;;;;5074247;28;20211;-64
2022/09/07 09:30:23;;;;;;;8.77;2.15;;;;;;;;;;5073672;28;20227;-64
2022/09/07 09:32:51;;;;;;;8.48;2.17;;;;;;;;;;5074405;28;20484;-64
2022/09/07 09:35:23;;;;;;;7.35;1.63;;;;;;;;;;5075203;28;20240;-64
2022/09/07 09:37:49;;;;;;;5.93;2.00;;;;;;;;;;5071022;28;20524;-61
2022/09/07 09:40:20;;;;;;;6.45;1.80;;;;;;;;;;5063519;28;20215;-63
2022/09/07 09:42:57;;;;;;;7.65;1.75;;;;;;;;;;5070030;28;20241;-62
2022/09/07 09:45:25;;;;;;;5.28;2.10;;;;;;;;;;5074132;28;20508;-62
2022/09/07 09:47:53;;;;;;;7.72;1.55;;;;;;;;;;5073499;28;20519;-62
2022/09/07 09:50:25;;;;;;;3.83;1.77;;;;;;;;;;5074226;28;20212;-62
2022/09/07 09:52:52;;;;;;;10.27;2.00;;;;;;;;;;5069885;28;20227;-63
2022/09/07 09:55:23;;;;;;;6.75;1.92;;;;;;;;;;5074518;28;20231;-62
2022/09/07 09:57:51;;;;;;;4.20;1.77;;;;;;;;;;5070878;28;20299;-62
2022/09/07 10:00:19;;;;;;;23.45;3.05;;;;;;;;;;5070025;28;20218;-62
2022/09/07 10:02:59;;;;;;;12.13;2.22;;;;;;;;;;5074002;28;20212;-62
2022/09/07 10:05:29;;;;;;;7.03;1.40;;;;;;;;;;5071368;28;20227;-62
2022/09/07 10:07:56;;;;;;;7.22;2.10;;;;;;;;;;5073311;28;20215;-65
2022/09/07 10:10:22;;;;;;;9.13;1.85;;;;;;;;;;5073135;28;20278;-66
2022/09/07 10:12:52;;;;;;;6.72;1.83;;;;;;;;;;5074041;28;20223;-64
2022/09/07 10:15:25;;;;;;;6.95;1.55;;;;;;;;;;5074323;28;20257;-64
2022/09/07 10:17:52;;;;;;;5.22;1.33;;;;;;;;;;5069648;28;20433;-65
2022/09/07 10:20:33;;;;;;;5.93;1.25;;;;;;;;;;5074197;28;20216;-64
2022/09/07 10:23:00;;;;;;;5.15;1.52;;;;;;;;;;5073312;28;20712;-64
2022/09/07 10:25:27;;;;;;;4.50;1.83;;;;;;;;;;5073163;28;20220;-64
2022/09/07 10:28:01;;;;;;;3.88;1.38;;;;;;;;;;5073402;28;20211;-64
2022/09/07 10:30:33;;;;;;;7.65;1.50;;;;;;;;;;5076395;28;20211;-64
2022/09/07 10:33:02;;;;;;;5.72;1.70;;;;;;;;;;5071943;28;20204;-67
2022/09/07 10:35:33;;;;;;;4.53;1.30;;;;;;;;;;5073012;28;20246;-68
2022/09/07 10:38:05;;;;;;;5.35;1.45;;;;;;;;;;5073183;28;20574;-66
2022/09/07 10:40:36;;;;;;;4.28;1.40;;;;;;;;;;5075362;28;20220;-65
2022/09/07 10:43:22;;;;;;;6.40;1.58;;;;;;;;;;5071034;28;20204;-64
2022/09/07 10:45:59;;;;;;;2.88;1.45;;;;;;;;;;5075336;28;20207;-66
2022/09/07 10:48:31;;;;;;;2.42;1.30;;;;;;;;;;5071749;28;20303;-65
2022/09/07 10:50:58;;;;;;;6.35;1.45;;;;;;;;;;5074337;28;20480;-65
2022/09/07 10:53:30;;;;;;;6.00;1.80;;;;;;;;;;5073771;28;20671;-65
2022/09/07 10:56:00;;;;;;;3.17;1.35;;;;;;;;;;5074331;28;20218;-67
2022/09/07 10:58:30;;;;;;;7.38;1.58;;;;;;;;;;5074497;28;20539;-66
2022/09/07 11:01:04;;;;;;;6.30;1.90;;;;;;;;;;5074241;28;20294;-66
2022/09/07 11:03:37;;;;;;;4.20;1.50;;;;;;;;;;5074458;28;20640;-66
2022/09/07 11:06:10;;;;;;;4.45;1.80;;;;;;;;;;5073717;28;20250;-66
2022/09/07 11:08:45;;;;;;;5.68;1.50;;;;;;;;;;5073987;28;20212;-65
2022/09/07 11:11:15;;;;;;;4.07;1.50;;;;;;;;;;5074548;28;20498;-65
2022/09/07 11:13:43;;;;;;;6.88;1.60;;;;;;;;;;5074202;28;20238;-65
2022/09/07 11:16:14;;;;;;;4.85;1.30;;;;;;;;;;5069566;28;20366;-64
2022/09/07 11:18:43;;;;;;;5.07;1.83;;;;;;;;;;5073557;28;20226;-64
2022/09/07 11:21:12;;;;;;;9.10;2.40;;;;;;;;;;5074322;28;20219;-64
2022/09/07 11:23:42;;;;;;;8.60;1.90;;;;;;;;;;5074263;28;20211;-64
2022/09/07 11:26:12;;;;;;;5.82;2.13;;;;;;;;;;5074112;28;20285;-65
2022/09/07 11:28:43;;;;;;;7.38;2.00;;;;;;;;;;5073819;28;20527;-64
2022/09/07 11:31:14;;;;;;;9.60;2.20;;;;;;;;;;5074053;28;20235;-64
2022/09/07 11:33:48;;;;;;;5.30;2.70;;;;;;;;;;5073805;28;20235;-63
2022/09/07 11:36:16;;;;;;;7.35;1.88;;;;;;;;;;5073974;28;20207;-63
2022/09/07 11:38:45;;;;;;;10.27;1.80;;;;;;;;;;5074485;28;20710;-64
2022/09/07 11:41:15;;;;;;;4.63;1.85;;;;;;;;;;5073408;28;20539;-64
2022/09/07 11:43:43;;;;;;;5.68;1.80;;;;;;;;;;5073225;28;20211;-64
2022/09/07 11:46:13;;;;;;;5.03;1.63;;;;;;;;;;5073121;28;20452;-64
2022/09/07 11:48:41;;;;;;;7.50;2.03;;;;;;;;;;5073324;28;20441;-65
2022/09/07 11:51:13;;;;;;;4.28;2.13;;;;;;;;;;5073814;28;20212;-64
2022/09/07 11:53:43;;;;;;;10.75;2.28;;;;;;;;;;5073105;28;20226;-64
2022/09/07 11:56:12;;;;;;;5.90;1.88;;;;;;;;;;5073891;28;20523;-65
2022/09/07 11:58:46;;;;;;;8.18;2.25;;;;;;;;;;5073395;28;20623;-64
2022/09/07 12:01:18;;;;;;;16.98;3.05;;;;;;;;;;5075360;28;20500;-65
2022/09/07 12:04:00;;;;;;;9.02;2.42;;;;;;;;;;5076119;28;20230;-64
2022/09/07 12:06:39;;;;;;;6.85;1.63;;;;;;;;;;5076012;28;20228;-64
2022/09/07 12:09:15;;;;;;;5.53;2.05;;;;;;;;;;5075568;28;20207;-64
2022/09/07 12:11:54;;;;;;;5.30;1.65;;;;;;;;;;5075778;28;20218;-64
2022/09/07 12:14:26;;;;;;;5.82;1.90;;;;;;;;;;5075995;28;20234;-64
2022/09/07 12:16:57;;;;;;;3.25;1.60;;;;;;;;;;5072119;28;20219;-65
2022/09/07 12:19:25;;;;;;;5.60;1.75;;;;;;;;;;5075062;28;20249;-65
2022/09/07 12:21:56;;;;;;;4.72;1.75;;;;;;;;;;5075167;28;20208;-64
2022/09/07 12:24:38;;;;;;;7.05;1.95;;;;;;;;;;5062850;28;20214;-64
2022/09/07 12:27:04;;;;;;;6.53;1.70;;;;;;;;;;5071960;28;20227;-64
2022/09/07 12:29:31;;;;;;;4.13;1.73;;;;;;;;;;5072312;28;20250;-64
2022/09/07 12:31:58;;;;;;;5.50;1.80;;;;;;;;;;5073003;28;20442;-65
2022/09/07 12:34:51;;;;;;;8.38;1.98;;;;;;;;;;5072896;28;20423;-65
2022/09/07 12:37:42;;;;;;;5.15;1.77;;;;;;;;;;5035283;28;20584;-65
2022/09/07 12:40:26;;;;;;;5.82;1.88;;;;;;;;;;5059289;28;20247;-65
2022/09/07 12:43:26;;;;;;;5.05;1.67;;;;;;;;;;5074185;28;20212;-66
2022/09/07 12:45:55;;;;;;;4.25;1.90;;;;;;;;;;5074815;28;20208;-66
2022/09/07 12:48:29;;;;;;;5.47;1.83;;;;;;;;;;5074669;28;20220;-65
2022/09/07 12:50:57;;;;;;;5.00;1.70;;;;;;;;;;5071810;28;20217;-65
2022/09/07 12:53:27;;;;;;;4.57;1.40;;;;;;;;;;5074160;28;20219;-65
2022/09/07 12:56:02;;;;;;;2.05;1.20;;;;;;;;;;5074667;28;20547;-65
2022/09/07 12:58:38;;;;;;;4.88;1.73;;;;;;;;;;5075404;28;20211;-66
2022/09/07 13:01:09;;;;;;;3.97;1.33;;;;;;;;;;5077111;28;20203;-66
2022/09/07 13:03:46;;;;;;;6.40;1.58;;;;;;;;;;5077724;28;20214;-66
2022/09/07 13:06:16;;;;;;;2.67;1.55;;;;;;;;;;5077042;28;20306;-65
2022/09/07 13:08:51;;;;;;;6.93;1.48;;;;;;;;;;5076837;28;20204;-66
2022/09/07 13:11:27;;;;;;;2.65;1.33;;;;;;;;;;5074059;28;20278;-64
2022/09/07 13:13:57;;;;;;;6.65;1.38;;;;;;;;;;5074105;28;20224;-67
2022/09/07 13:16:28;;;;;;;2.95;1.63;;;;;;;;;;5077468;28;20208;-65
2022/09/07 13:18:55;;;;;;;6.88;1.45;;;;;;;;;;5076997;28;20212;-66
2022/09/07 13:21:37;;;;;;;6.53;1.58;;;;;;;;;;5077661;28;20434;-66
2022/09/07 13:24:22;;;;;;;6.00;1.40;;;;;;;;;;5077183;28;20223;-65
2022/09/07 13:26:52;;;;;;;7.35;1.55;;;;;;;;;;5077507;28;20511;-65
2022/09/07 13:29:22;;;;;;;6.13;1.60;;;;;;;;;;5077713;28;20216;-65
2022/09/07 13:31:57;;;;;;;3.55;1.25;;;;;;;;;;5077769;28;20200;-66
2022/09/07 13:34:43;;;;;;;4.68;1.70;;;;;;;;;;5073399;28;20354;-65
2022/09/07 13:37:14;;;;;;;3.28;1.25;;;;;;;;;;5076784;28;20219;-65
2022/09/07 13:39:41;;;;;;;4.80;1.90;;;;;;;;;;5076997;28;20211;-65
2022/09/07 13:42:12;;;;;;;4.13;1.55;;;;;;;;;;5076836;28;20231;-69
2022/09/07 13:44:40;;;;;;;3.65;1.30;;;;;;;;;;5076837;28;20211;-65
2022/09/07 13:47:11;;;;;;;4.80;1.13;;;;;;;;;;5076470;28;20446;-66
2022/09/07 13:49:42;;;;;;;1.58;1.20;;;;;;;;;;5076855;28;20208;-66
2022/09/07 13:52:13;;;;;;;3.72;1.30;;;;;;;;;;5076276;28;20207;-65
2022/09/07 13:54:46;;;;;;;1.35;1.25;;;;;;;;;;5076494;28;20282;-65
2022/09/07 13:57:16;;;;;;;4.97;1.40;;;;;;;;;;5076445;28;20519;-66
2022/09/07 13:59:45;;;;;;;3.13;1.40;;;;;;;;;;5077039;28;20211;-65
2022/09/07 14:02:19;;;;;;;4.13;1.58;;;;;;;;;;5077310;28;20483;-66
2022/09/07 14:04:49;;;;;;;4.38;1.60;;;;;;;;;;5075614;28;20254;-65
2022/09/07 14:07:16;;;;;;;2.80;1.50;;;;;;;;;;5076799;28;20246;-64
2022/09/07 14:09:42;;;;;;;3.17;1.35;;;;;;;;;;5076272;28;20283;-65
2022/09/07 14:12:13;;;;;;;6.60;1.50;;;;;;;;;;5075965;28;20253;-64
2022/09/07 14:14:39;;;;;;;5.20;1.50;;;;;;;;;;5076471;28;20227;-65
2022/09/07 14:17:11;;;;;;;2.28;1.23;;;;;;;;;;5077057;28;20207;-66
2022/09/07 14:19:39;;;;;;;3.42;1.10;;;;;;;;;;5076262;28;20283;-65
2022/09/07 14:22:06;;;;;;;1.65;1.10;;;;;;;;;;5075990;28;20212;-64
2022/09/07 14:24:34;;;;;;;4.00;1.25;;;;;;;;;;5076730;28;20200;-65
2022/09/07 14:27:01;;;;;;;5.35;1.20;;;;;;;;;;5076332;28;20516;-65
2022/09/07 14:29:29;;;;;;;4.28;1.27;;;;;;;;;;5076199;28;20215;-65
2022/09/07 14:31:57;;;;;;;4.03;1.30;;;;;;;;;;5076753;28;20400;-66
2022/09/07 14:34:26;;;;;;;2.60;1.23;;;;;;;;;;5076173;28;20231;-70
2022/09/07 14:36:53;;;;;;;4.32;1.00;;;;;;;;;;5075849;28;20215;-71
2022/09/07 14:39:24;;;;;;;2.42;1.10;;;;;;;;;;5076666;28;20215;-71
2022/09/07 14:41:50;;;;;;;3.72;1.30;;;;;;;;;;5076284;28;20500;-71
2022/09/07 14:44:30;;;;;;;3.85;1.40;;;;;;;;;;5076629;28;20208;-72
2022/09/07 14:46:57;;;;;;;4.10;1.40;;;;;;;;;;5077512;28;20231;-70
2022/09/07 14:49:25;;;;;;;5.25;1.10;;;;;;;;;;5078778;28;20204;-70
2022/09/07 14:51:52;;;;;;;5.00;1.35;;;;;;;;;;5078763;28;20434;-71
2022/09/07 14:54:19;;;;;;;6.03;1.30;;;;;;;;;;5073138;28;20299;-70